createdAt,value
2018-05-15T00:00:45.014Z,18.53
2018-05-15T00:01:44.967Z,18.51
2018-05-15T00:02:44.996Z,18.59
2018-05-15T00:03:45.025Z,18.65
2018-05-15T00:04:45.056Z,18.57
2018-05-15T00:05:45.078Z,18.66
2018-05-15T00:06:45.106Z,18.68
2018-05-15T00:07:45.138Z,18.64
2018-05-15T00:08:45.166Z,18.76
2018-05-15T00:09:45.187Z,18.74
2018-05-15T00:10:45.224Z,18.69
2018-05-15T00:11:45.251Z,18.65
2018-05-15T00:12:45.277Z,18.75
2018-05-15T00:13:45.300Z,18.68
2018-05-15T00:14:45.326Z,18.68
2018-05-15T00:15:45.356Z,18.68
2018-05-15T00:16:45.381Z,18.65
2018-05-15T00:17:45.409Z,18.65
2018-05-15T00:18:45.442Z,18.57
2018-05-15T00:19:45.465Z,18.54
2018-05-15T00:20:45.559Z,18.51
2018-05-15T00:21:45.524Z,18.44
2018-05-15T00:22:45.546Z,18.41
2018-05-15T00:23:45.577Z,18.34
2018-05-15T00:24:45.602Z,18.36
2018-05-15T00:25:45.631Z,18.42
2018-05-15T00:26:45.657Z,18.38
2018-05-15T00:27:45.683Z,18.42
2018-05-15T00:28:45.716Z,18.36
2018-05-15T00:29:45.736Z,18.34
2018-05-15T00:30:45.766Z,18.38
2018-05-15T00:31:45.800Z,18.26
2018-05-15T00:32:45.820Z,18.35
2018-05-15T00:33:45.854Z,18.20
2018-05-15T00:34:45.876Z,18.02
2018-05-15T00:35:45.911Z,18.14
2018-05-15T00:36:45.931Z,18.16
2018-05-15T00:37:45.956Z,18.19
2018-05-15T00:38:45.986Z,18.20
2018-05-15T00:39:46.023Z,18.05
2018-05-15T00:40:46.046Z,18.04
2018-05-15T00:41:46.077Z,18.16
2018-05-15T00:42:46.101Z,18.17
2018-05-15T00:43:46.125Z,18.02
2018-05-15T00:44:46.154Z,18.02
2018-05-15T00:45:46.184Z,18.02
2018-05-15T00:46:46.211Z,18.02
2018-05-15T00:47:46.235Z,17.94
2018-05-15T00:48:46.264Z,17.95
2018-05-15T00:49:46.288Z,17.99
2018-05-15T00:50:46.316Z,17.96
2018-05-15T00:51:46.353Z,18.02
2018-05-15T00:52:46.373Z,18.04
2018-05-15T00:53:46.398Z,18.02
2018-05-15T00:54:46.427Z,17.99
2018-05-15T00:55:46.454Z,18.02
2018-05-15T00:56:46.488Z,17.92
2018-05-15T00:57:46.505Z,17.94
2018-05-15T00:58:46.534Z,17.87
2018-05-15T00:59:46.559Z,17.84
2018-05-15T01:00:46.601Z,17.94
2018-05-15T01:01:46.614Z,17.86
2018-05-15T01:02:46.644Z,17.79
2018-05-15T01:03:46.669Z,17.81
2018-05-15T01:04:46.699Z,17.87
2018-05-15T01:05:46.726Z,17.70
2018-05-15T01:06:46.764Z,17.53
2018-05-15T01:07:46.783Z,17.49
2018-05-15T01:08:46.805Z,17.53
2018-05-15T01:09:46.836Z,17.46
2018-05-15T01:10:46.864Z,17.68
2018-05-15T01:11:46.890Z,17.74
2018-05-15T01:12:46.919Z,17.77
2018-05-15T01:13:46.945Z,17.80
2018-05-15T01:14:46.969Z,17.94
2018-05-15T01:15:46.997Z,17.94
2018-05-15T01:16:47.039Z,17.81
2018-05-15T01:17:47.049Z,17.91
2018-05-15T01:18:47.082Z,17.87
2018-05-15T01:19:47.113Z,17.87
2018-05-15T01:20:47.133Z,17.79
2018-05-15T01:21:47.159Z,17.74
2018-05-15T01:22:47.193Z,17.66
2018-05-15T01:23:47.213Z,17.68
2018-05-15T01:24:47.246Z,17.66
2018-05-15T01:25:47.270Z,17.54
2018-05-15T01:26:47.310Z,17.51
2018-05-15T01:27:47.324Z,17.51
2018-05-15T01:28:47.358Z,17.51
2018-05-15T01:29:47.378Z,17.54
2018-05-15T01:30:47.403Z,17.43
2018-05-15T01:31:47.438Z,17.63
2018-05-15T01:32:47.459Z,17.53
2018-05-15T01:33:47.488Z,17.49
2018-05-15T01:34:47.515Z,17.53
2018-05-15T01:35:47.539Z,17.43
2018-05-15T01:36:47.570Z,17.36
2018-05-15T01:37:47.593Z,17.27
2018-05-15T01:38:47.628Z,17.38
2018-05-15T01:39:47.647Z,17.33
2018-05-15T01:40:47.685Z,17.51
2018-05-15T01:41:47.708Z,17.43
2018-05-15T01:42:47.728Z,17.42
2018-05-15T01:43:47.765Z,17.47
2018-05-15T01:44:47.793Z,17.38
2018-05-15T01:45:47.811Z,17.36
2018-05-15T01:46:47.838Z,17.35
2018-05-15T01:47:47.868Z,17.43
2018-05-15T01:48:47.892Z,17.40
2018-05-15T01:49:47.918Z,17.49
2018-05-15T01:50:47.948Z,17.38
2018-05-15T01:51:47.977Z,17.46
2018-05-15T01:52:48.002Z,17.32
2018-05-15T01:53:48.025Z,17.21
2018-05-15T01:54:48.057Z,17.15
2018-05-15T01:55:48.078Z,17.21
2018-05-15T01:56:48.108Z,17.27
2018-05-15T01:57:48.133Z,17.33
2018-05-15T01:58:48.161Z,17.32
2018-05-15T01:59:48.194Z,17.32
2018-05-15T02:00:48.216Z,17.24
2018-05-15T02:01:48.245Z,17.27
2018-05-15T02:02:48.266Z,17.39
2018-05-15T02:03:48.301Z,17.38
2018-05-15T02:04:48.321Z,17.40
2018-05-15T02:05:48.349Z,17.40
2018-05-15T02:06:48.378Z,17.39
2018-05-15T02:07:48.402Z,17.35
2018-05-15T02:08:48.432Z,17.28
2018-05-15T02:09:48.457Z,17.28
2018-05-15T02:10:48.492Z,17.18
2018-05-15T02:11:48.518Z,17.20
2018-05-15T02:12:48.540Z,17.27
2018-05-15T02:13:48.566Z,17.18
2018-05-15T02:14:48.595Z,17.27
2018-05-15T02:15:48.621Z,17.21
2018-05-15T02:16:48.647Z,17.21
2018-05-15T02:17:48.680Z,17.20
2018-05-15T02:18:48.703Z,17.24
2018-05-15T02:19:48.727Z,17.17
2018-05-15T02:20:48.756Z,17.09
2018-05-15T02:21:48.785Z,16.92
2018-05-15T02:22:48.813Z,16.84
2018-05-15T02:23:48.836Z,16.90
2018-05-15T02:24:48.864Z,16.98
2018-05-15T02:25:48.886Z,17.00
2018-05-15T02:26:48.917Z,17.07
2018-05-15T02:27:48.947Z,17.12
2018-05-15T02:28:48.969Z,17.06
2018-05-15T02:29:48.998Z,17.14
2018-05-15T02:30:49.032Z,17.17
2018-05-15T02:31:49.049Z,17.14
2018-05-15T02:32:49.081Z,17.07
2018-05-15T02:33:49.103Z,17.05
2018-05-15T02:34:49.130Z,16.98
2018-05-15T02:35:49.161Z,16.87
2018-05-15T02:36:49.182Z,16.99
2018-05-15T02:37:49.210Z,16.96
2018-05-15T02:38:49.244Z,17.00
2018-05-15T02:39:49.263Z,16.99
2018-05-15T02:40:49.290Z,17.02
2018-05-15T02:41:49.329Z,17.18
2018-05-15T02:42:49.346Z,17.14
2018-05-15T02:43:49.369Z,17.07
2018-05-15T02:44:49.404Z,17.06
2018-05-15T02:45:49.426Z,17.02
2018-05-15T02:46:49.453Z,16.96
2018-05-15T02:47:49.482Z,16.92
2018-05-15T02:48:49.509Z,16.92
2018-05-15T02:49:49.531Z,16.90
2018-05-15T02:50:49.559Z,16.88
2018-05-15T02:51:49.586Z,16.91
2018-05-15T02:52:49.617Z,16.85
2018-05-15T02:53:49.645Z,16.85
2018-05-15T02:54:49.665Z,16.99
2018-05-15T02:55:49.734Z,17.00
2018-05-15T02:56:49.720Z,16.98
2018-05-15T02:57:49.749Z,16.88
2018-05-15T02:58:49.774Z,16.87
2018-05-15T02:59:49.800Z,16.80
2018-05-15T03:00:49.825Z,16.77
2018-05-15T03:01:49.853Z,16.78
2018-05-15T03:02:49.880Z,16.78
2018-05-15T03:03:49.909Z,16.90
2018-05-15T03:04:49.938Z,16.88
2018-05-15T03:05:49.961Z,16.88
2018-05-15T03:06:49.991Z,16.77
2018-05-15T03:07:50.009Z,16.81
2018-05-15T03:08:50.046Z,16.77
2018-05-15T03:09:50.069Z,16.66
2018-05-15T03:10:50.103Z,16.65
2018-05-15T03:11:50.126Z,16.67
2018-05-15T03:12:50.145Z,16.63
2018-05-15T03:13:50.170Z,16.66
2018-05-15T03:14:50.195Z,16.70
2018-05-15T03:15:50.224Z,16.69
2018-05-15T03:16:50.265Z,16.66
2018-05-15T03:17:50.281Z,16.63
2018-05-15T03:18:50.308Z,16.66
2018-05-15T03:19:50.329Z,16.63
2018-05-15T03:20:50.354Z,16.75
2018-05-15T03:21:50.383Z,16.70
2018-05-15T03:22:50.409Z,16.66
2018-05-15T03:23:50.440Z,16.70
2018-05-15T03:24:50.463Z,16.66
2018-05-15T03:25:50.493Z,16.72
2018-05-15T03:26:50.519Z,16.75
2018-05-15T03:27:50.547Z,16.78
2018-05-15T03:28:50.568Z,16.81
2018-05-15T03:29:50.594Z,16.82
2018-05-15T03:30:50.628Z,16.77
2018-05-15T03:31:50.656Z,16.72
2018-05-15T03:32:50.677Z,16.69
2018-05-15T03:33:50.702Z,16.65
2018-05-15T03:34:50.735Z,16.67
2018-05-15T03:35:50.762Z,16.63
2018-05-15T03:36:50.785Z,16.62
2018-05-15T03:37:50.803Z,16.50
2018-05-15T03:38:50.924Z,16.48
2018-05-15T03:39:50.859Z,16.45
2018-05-15T03:40:50.887Z,16.42
2018-05-15T03:41:50.916Z,16.51
2018-05-15T03:42:50.938Z,16.51
2018-05-15T03:43:50.963Z,16.48
2018-05-15T03:44:50.996Z,16.51
2018-05-15T03:45:51.017Z,16.60
2018-05-15T03:46:51.054Z,16.63
2018-05-15T03:47:51.077Z,16.55
2018-05-15T03:48:51.097Z,16.63
2018-05-15T03:49:51.124Z,16.63
2018-05-15T03:50:51.150Z,16.67
2018-05-15T03:51:51.176Z,16.54
2018-05-15T03:52:51.203Z,16.69
2018-05-15T03:53:51.226Z,16.63
2018-05-15T03:54:51.257Z,16.65
2018-05-15T03:55:51.279Z,16.60
2018-05-15T03:56:51.306Z,16.57
2018-05-15T03:57:51.335Z,16.62
2018-05-15T03:58:51.361Z,16.57
2018-05-15T03:59:51.387Z,16.65
2018-05-15T04:00:51.416Z,16.57
2018-05-15T04:01:51.444Z,16.48
2018-05-15T04:02:51.471Z,16.54
2018-05-15T04:03:51.498Z,16.69
2018-05-15T04:04:51.523Z,16.59
2018-05-15T04:05:51.547Z,16.67
2018-05-15T04:06:51.575Z,16.59
2018-05-15T04:07:51.602Z,16.60
2018-05-15T04:08:51.625Z,16.60
2018-05-15T04:09:51.651Z,16.51
2018-05-15T04:10:51.718Z,16.48
2018-05-15T04:11:51.706Z,16.52
2018-05-15T04:12:51.736Z,16.47
2018-05-15T04:13:51.756Z,16.59
2018-05-15T04:14:51.786Z,16.48
2018-05-15T04:15:51.811Z,16.51
2018-05-15T04:16:51.846Z,16.54
2018-05-15T04:17:51.866Z,16.54
2018-05-15T04:18:51.893Z,16.48
2018-05-15T04:19:51.920Z,16.60
2018-05-15T04:20:51.943Z,16.67
2018-05-15T04:21:51.972Z,16.65
2018-05-15T04:22:51.996Z,16.67
2018-05-15T04:23:52.022Z,16.63
2018-05-15T04:24:52.058Z,16.65
2018-05-15T04:25:52.081Z,16.60
2018-05-15T04:26:52.102Z,16.59
2018-05-15T04:27:52.136Z,16.60
2018-05-15T04:28:52.156Z,16.63
2018-05-15T04:29:52.181Z,16.62
2018-05-15T04:30:52.205Z,16.69
2018-05-15T04:31:52.236Z,16.60
2018-05-15T04:32:52.267Z,16.67
2018-05-15T04:33:52.289Z,16.69
2018-05-15T04:34:52.316Z,16.67
2018-05-15T04:35:52.341Z,16.70
2018-05-15T04:36:52.370Z,16.72
2018-05-15T04:37:52.399Z,16.67
2018-05-15T04:38:52.424Z,16.67
2018-05-15T04:39:52.450Z,16.67
2018-05-15T04:40:52.479Z,16.60
2018-05-15T04:41:52.503Z,16.51
2018-05-15T04:42:52.525Z,16.47
2018-05-15T04:43:52.882Z,16.45
2018-05-15T04:44:52.581Z,16.57
2018-05-15T04:45:52.605Z,16.73
2018-05-15T04:46:52.634Z,16.67
2018-05-15T04:47:52.658Z,16.66
2018-05-15T04:48:52.686Z,16.69
2018-05-15T04:49:52.708Z,16.80
2018-05-15T04:50:52.735Z,16.78
2018-05-15T04:51:52.761Z,16.80
2018-05-15T04:52:52.785Z,16.77
2018-05-15T04:53:52.814Z,16.75
2018-05-15T04:54:52.840Z,16.73
2018-05-15T04:55:52.870Z,16.77
2018-05-15T04:56:52.895Z,16.80
2018-05-15T04:57:52.920Z,16.91
2018-05-15T04:58:52.944Z,16.88
2018-05-15T04:59:52.977Z,16.90
2018-05-15T05:00:53.007Z,16.90
2018-05-15T05:01:53.070Z,16.95
2018-05-15T05:02:53.059Z,16.91
2018-05-15T05:03:53.084Z,16.85
2018-05-15T05:04:53.108Z,17.02
2018-05-15T05:05:53.129Z,16.99
2018-05-15T05:06:53.155Z,17.09
2018-05-15T05:07:53.187Z,17.03
2018-05-15T05:08:53.209Z,17.15
2018-05-15T05:09:53.247Z,17.22
2018-05-15T05:10:53.264Z,17.25
2018-05-15T05:11:53.320Z,17.12
2018-05-15T05:12:53.315Z,17.21
2018-05-15T05:13:53.347Z,17.12
2018-05-15T05:14:53.371Z,17.15
2018-05-15T05:15:53.396Z,17.18
2018-05-15T05:16:53.423Z,17.20
2018-05-15T05:17:53.449Z,17.03
2018-05-15T05:18:53.474Z,17.17
2018-05-15T05:19:53.507Z,17.05
2018-05-15T05:20:53.529Z,17.05
2018-05-15T05:21:53.558Z,17.06
2018-05-15T05:22:53.583Z,17.14
2018-05-15T05:23:53.610Z,17.15
2018-05-15T05:24:53.642Z,17.18
2018-05-15T05:25:53.664Z,17.17
2018-05-15T05:26:53.692Z,17.10
2018-05-15T05:27:53.717Z,17.06
2018-05-15T05:28:53.742Z,17.07
2018-05-15T05:29:53.769Z,17.12
2018-05-15T05:30:53.797Z,17.24
2018-05-15T05:31:53.827Z,17.21
2018-05-15T05:32:53.853Z,17.28
2018-05-15T05:33:53.879Z,17.25
2018-05-15T05:34:53.906Z,17.28
2018-05-15T05:35:53.929Z,17.28
2018-05-15T05:36:53.956Z,17.33
2018-05-15T05:37:53.989Z,17.38
2018-05-15T05:38:54.010Z,17.38
2018-05-15T05:39:54.041Z,17.45
2018-05-15T05:40:54.068Z,17.51
2018-05-15T05:41:54.092Z,17.54
2018-05-15T05:42:54.113Z,17.62
2018-05-15T05:43:54.143Z,17.47
2018-05-15T05:44:54.171Z,17.55
2018-05-15T05:45:54.198Z,17.66
2018-05-15T05:46:54.224Z,17.70
2018-05-15T05:47:54.247Z,17.66
2018-05-15T05:48:54.277Z,17.71
2018-05-15T05:49:54.306Z,17.70
2018-05-15T05:50:54.330Z,17.89
2018-05-15T05:51:54.451Z,17.73
2018-05-15T05:52:54.382Z,17.76
2018-05-15T05:53:54.412Z,17.79
2018-05-15T05:54:54.438Z,17.74
2018-05-15T05:55:54.498Z,17.81
2018-05-15T05:56:54.492Z,17.83
2018-05-15T05:57:54.519Z,17.87
2018-05-15T05:58:54.552Z,17.84
2018-05-15T05:59:54.571Z,17.89
2018-05-15T06:00:54.607Z,17.81
2018-05-15T06:01:54.633Z,17.95
2018-05-15T06:02:54.664Z,17.92
2018-05-15T06:03:54.676Z,17.95
2018-05-15T06:04:54.710Z,17.95
2018-05-15T06:05:54.731Z,18.02
2018-05-15T06:06:54.765Z,18.05
2018-05-15T06:07:54.787Z,18.01
2018-05-15T06:08:54.821Z,18.05
2018-05-15T06:09:54.841Z,18.10
2018-05-15T06:10:54.871Z,18.17
2018-05-15T06:11:54.904Z,18.20
2018-05-15T06:12:54.925Z,18.25
2018-05-15T06:13:54.956Z,18.23
2018-05-15T06:14:54.977Z,18.20
2018-05-15T06:15:55.008Z,18.20
2018-05-15T06:16:55.033Z,18.26
2018-05-15T06:17:55.062Z,18.17
2018-05-15T06:18:55.090Z,18.28
2018-05-15T06:19:55.119Z,18.32
2018-05-15T06:20:55.164Z,18.44
2018-05-15T06:21:55.163Z,18.36
2018-05-15T06:22:55.194Z,18.38
2018-05-15T06:23:55.224Z,18.41
2018-05-15T06:24:55.250Z,18.39
2018-05-15T06:25:55.277Z,18.42
2018-05-15T06:26:55.355Z,18.49
2018-05-15T06:27:55.326Z,18.47
2018-05-15T06:28:55.357Z,18.47
2018-05-15T06:29:55.386Z,18.51
2018-05-15T06:30:55.411Z,18.56
2018-05-15T06:31:55.437Z,18.51
2018-05-15T06:32:55.492Z,18.44
2018-05-15T06:33:55.577Z,18.54
2018-05-15T06:34:55.517Z,18.50
2018-05-15T06:35:55.546Z,18.59
2018-05-15T06:36:55.570Z,18.60
2018-05-15T06:37:55.599Z,18.57
2018-05-15T06:38:55.631Z,18.69
2018-05-15T06:39:55.656Z,18.68
2018-05-15T06:40:55.682Z,18.71
2018-05-15T06:41:55.708Z,18.75
2018-05-15T06:42:55.741Z,18.71
2018-05-15T06:43:55.768Z,18.69
2018-05-15T06:44:55.790Z,18.75
2018-05-15T06:45:55.819Z,18.65
2018-05-15T06:46:55.846Z,18.76
2018-05-15T06:47:55.879Z,18.71
2018-05-15T06:48:55.900Z,18.78
2018-05-15T06:49:55.933Z,18.84
2018-05-15T06:50:55.965Z,18.89
2018-05-15T06:51:55.985Z,18.91
2018-05-15T06:52:56.011Z,18.90
2018-05-15T06:53:56.038Z,18.94
2018-05-15T06:54:56.066Z,18.89
2018-05-15T06:55:56.094Z,18.93
2018-05-15T06:56:56.120Z,19.01
2018-05-15T06:57:56.156Z,18.96
2018-05-15T06:58:56.179Z,18.94
2018-05-15T06:59:56.204Z,18.99
2018-05-15T07:00:56.246Z,19.15
2018-05-15T07:01:56.355Z,19.12
2018-05-15T07:02:56.286Z,19.13
2018-05-15T07:03:56.313Z,19.10
2018-05-15T07:04:56.341Z,19.15
2018-05-15T07:05:56.367Z,19.21
2018-05-15T07:06:56.402Z,19.35
2018-05-15T07:07:56.430Z,19.24
2018-05-15T07:08:56.450Z,19.24
2018-05-15T07:09:56.481Z,19.34
2018-05-15T07:10:56.510Z,19.21
2018-05-15T07:11:56.541Z,19.23
2018-05-15T07:12:56.564Z,19.38
2018-05-15T07:13:56.598Z,19.39
2018-05-15T07:14:56.616Z,19.47
2018-05-15T07:15:56.651Z,19.43
2018-05-15T07:16:56.674Z,19.50
2018-05-15T07:17:56.699Z,19.46
2018-05-15T07:18:56.725Z,19.49
2018-05-15T07:19:56.760Z,19.55
2018-05-15T07:20:56.783Z,19.57
2018-05-15T07:21:56.815Z,19.64
2018-05-15T07:22:56.839Z,19.67
2018-05-15T07:23:56.869Z,19.67
2018-05-15T07:24:56.896Z,19.64
2018-05-15T07:25:56.924Z,19.71
2018-05-15T07:26:56.953Z,19.61
2018-05-15T07:27:56.983Z,19.65
2018-05-15T07:28:57.007Z,19.70
2018-05-15T07:29:57.037Z,19.70
2018-05-15T07:30:57.063Z,19.62
2018-05-15T07:31:57.107Z,19.68
2018-05-15T07:32:57.123Z,19.65
2018-05-15T07:33:57.148Z,19.70
2018-05-15T07:34:57.173Z,19.68
2018-05-15T07:35:57.200Z,19.71
2018-05-15T07:36:57.228Z,19.71
2018-05-15T07:37:57.260Z,19.75
2018-05-15T07:38:57.289Z,19.82
2018-05-15T07:39:57.318Z,19.80
2018-05-15T07:40:57.343Z,19.83
2018-05-15T07:41:57.370Z,19.87
2018-05-15T07:42:57.396Z,19.86
2018-05-15T07:43:57.428Z,19.82
2018-05-15T07:44:57.453Z,19.85
2018-05-15T07:45:57.478Z,19.90
2018-05-15T07:46:57.513Z,19.98
2018-05-15T07:47:57.540Z,19.97
2018-05-15T07:48:57.570Z,20.01
2018-05-15T07:49:57.598Z,19.97
2018-05-15T07:50:57.619Z,20.04
2018-05-15T07:51:57.651Z,19.98
2018-05-15T07:52:57.682Z,20.04
2018-05-15T07:53:57.705Z,20.04
2018-05-15T07:54:57.738Z,20.10
2018-05-15T07:55:57.762Z,20.15
2018-05-15T07:56:57.797Z,20.15
2018-05-15T07:57:57.816Z,20.16
2018-05-15T07:58:57.848Z,20.22
2018-05-15T07:59:57.885Z,20.23
2018-05-15T08:00:57.908Z,20.25
2018-05-15T08:01:57.932Z,20.26
2018-05-15T08:02:57.958Z,20.25
2018-05-15T08:03:57.989Z,20.33
2018-05-15T08:04:58.022Z,20.37
2018-05-15T08:05:58.044Z,20.34
2018-05-15T08:06:58.081Z,20.31
2018-05-15T08:07:58.094Z,20.48
2018-05-15T08:08:58.127Z,20.60
2018-05-15T08:09:58.150Z,20.60
2018-05-15T08:10:58.179Z,20.76
2018-05-15T08:11:58.240Z,20.71
2018-05-15T08:12:58.243Z,20.78
2018-05-15T08:13:58.268Z,20.75
2018-05-15T08:14:58.305Z,20.85
2018-05-15T08:15:58.326Z,20.85
2018-05-15T08:16:58.363Z,20.88
2018-05-15T08:17:58.377Z,20.88
2018-05-15T08:18:58.412Z,20.94
2018-05-15T08:19:58.451Z,20.88
2018-05-15T08:20:58.467Z,20.96
2018-05-15T08:21:58.494Z,21.06
2018-05-15T08:22:58.527Z,21.03
2018-05-15T08:23:58.555Z,21.05
2018-05-15T08:24:58.580Z,21.08
2018-05-15T08:25:58.611Z,21.09
2018-05-15T08:26:58.644Z,21.09
2018-05-15T08:27:58.666Z,21.09
2018-05-15T08:28:58.705Z,21.16
2018-05-15T08:29:58.723Z,21.15
2018-05-15T08:30:58.813Z,21.15
2018-05-15T08:31:58.778Z,21.19
2018-05-15T08:32:58.810Z,21.33
2018-05-15T08:33:58.833Z,21.31
2018-05-15T08:34:58.874Z,21.48
2018-05-15T08:35:58.896Z,21.49
2018-05-15T08:36:58.922Z,21.53
2018-05-15T08:37:58.957Z,21.51
2018-05-15T08:38:58.976Z,21.51
2018-05-15T08:39:59.008Z,21.46
2018-05-15T08:40:59.036Z,21.53
2018-05-15T08:41:59.065Z,21.63
2018-05-15T08:42:59.091Z,21.59
2018-05-15T08:43:59.125Z,21.48
2018-05-15T08:44:59.150Z,21.61
2018-05-15T08:45:59.181Z,21.59
2018-05-15T08:46:59.205Z,21.63
2018-05-15T08:47:59.234Z,21.70
2018-05-15T08:48:59.269Z,21.71
2018-05-15T08:49:59.294Z,21.70
2018-05-15T08:50:59.316Z,21.79
2018-05-15T08:51:59.345Z,21.82
2018-05-15T08:52:59.375Z,21.79
2018-05-15T08:53:59.407Z,21.79
2018-05-15T08:54:59.436Z,21.82
2018-05-15T08:55:59.538Z,21.83
2018-05-15T08:56:59.491Z,21.82
2018-05-15T08:57:59.520Z,21.91
2018-05-15T08:58:59.552Z,21.91
2018-05-15T08:59:59.574Z,21.82
2018-05-15T09:00:59.621Z,21.89
2018-05-15T09:01:59.646Z,21.83
2018-05-15T09:02:59.664Z,21.91
2018-05-15T09:03:59.700Z,21.98
2018-05-15T09:04:59.721Z,22.08
2018-05-15T09:05:59.759Z,22.08
2018-05-15T09:06:59.869Z,22.14
2018-05-15T09:07:59.808Z,22.14
2018-05-15T09:08:59.843Z,22.21
2018-05-15T09:09:59.860Z,22.19
2018-05-15T09:10:59.891Z,22.14
2018-05-15T09:11:59.918Z,22.24
2018-05-15T09:12:59.952Z,22.30
2018-05-15T09:13:59.977Z,22.36
2018-05-15T09:15:00.012Z,22.30
2018-05-15T09:16:00.043Z,22.27
2018-05-15T09:17:00.069Z,22.30
2018-05-15T09:18:00.097Z,22.26
2018-05-15T09:19:00.124Z,22.36
2018-05-15T09:20:00.152Z,22.24
2018-05-15T09:21:00.179Z,22.38
2018-05-15T09:22:00.214Z,22.56
2018-05-15T09:23:00.341Z,22.60
2018-05-15T09:24:00.274Z,22.67
2018-05-15T09:25:00.303Z,22.72
2018-05-15T09:26:00.327Z,22.74
2018-05-15T09:27:00.369Z,22.79
2018-05-15T09:28:00.384Z,22.84
2018-05-15T09:29:00.416Z,22.99
2018-05-15T09:30:00.445Z,22.94
2018-05-15T09:31:00.471Z,23.01
2018-05-15T09:32:00.502Z,23.04
2018-05-15T09:33:00.529Z,22.93
2018-05-15T09:34:00.563Z,22.96
2018-05-15T09:35:00.588Z,22.82
2018-05-15T09:36:00.619Z,23.00
2018-05-15T09:37:00.649Z,23.00
2018-05-15T09:38:00.676Z,23.07
2018-05-15T09:39:00.705Z,23.07
2018-05-15T09:40:00.733Z,23.15
2018-05-15T09:41:00.759Z,23.22
2018-05-15T09:42:00.792Z,23.25
2018-05-15T09:43:00.826Z,23.26
2018-05-15T09:44:00.851Z,23.26
2018-05-15T09:45:00.878Z,23.35
2018-05-15T09:46:00.910Z,23.39
2018-05-15T09:47:00.988Z,23.56
2018-05-15T09:48:00.966Z,23.53
2018-05-15T09:49:00.993Z,23.56
2018-05-15T09:50:01.022Z,23.49
2018-05-15T09:51:01.059Z,23.49
2018-05-15T09:52:01.083Z,23.53
2018-05-15T09:53:01.113Z,23.44
2018-05-15T09:54:01.144Z,23.39
2018-05-15T09:55:01.175Z,23.52
2018-05-15T09:56:01.202Z,23.63
2018-05-15T09:57:01.235Z,23.67
2018-05-15T09:58:01.258Z,23.74
2018-05-15T09:59:01.291Z,23.77
2018-05-15T10:00:01.319Z,23.82
2018-05-15T10:01:01.347Z,23.72
2018-05-15T10:02:01.372Z,23.81
2018-05-15T10:03:01.403Z,23.82
2018-05-15T10:04:01.439Z,23.92
2018-05-15T10:05:01.464Z,23.89
2018-05-15T10:06:01.502Z,23.87
2018-05-15T10:07:01.530Z,24.05
2018-05-15T10:08:01.611Z,24.24
2018-05-15T10:09:01.582Z,24.30
2018-05-15T10:10:01.617Z,24.29
2018-05-15T10:11:01.642Z,24.23
2018-05-15T10:12:01.683Z,24.29
2018-05-15T10:13:01.715Z,24.33
2018-05-15T10:14:01.730Z,24.39
2018-05-15T10:15:01.760Z,24.44
2018-05-15T10:16:01.788Z,24.37
2018-05-15T10:17:01.814Z,24.26
2018-05-15T10:18:01.849Z,24.31
2018-05-15T10:19:01.882Z,24.29
2018-05-15T10:20:01.936Z,24.27
2018-05-15T10:21:01.936Z,24.27
2018-05-15T10:22:01.967Z,24.34
2018-05-15T10:23:01.995Z,24.42
2018-05-15T10:24:02.029Z,24.41
2018-05-15T10:25:02.055Z,24.34
2018-05-15T10:26:02.081Z,24.42
2018-05-15T10:27:02.112Z,24.52
2018-05-15T10:28:02.142Z,24.55
2018-05-15T10:29:02.171Z,24.60
2018-05-15T10:30:02.280Z,24.66
2018-05-15T10:31:02.231Z,24.77
2018-05-15T10:32:02.267Z,24.66
2018-05-15T10:33:02.290Z,24.77
2018-05-15T10:34:02.318Z,24.87
2018-05-15T10:35:02.355Z,24.84
2018-05-15T10:36:02.381Z,25.09
2018-05-15T10:37:02.413Z,25.04
2018-05-15T10:38:02.441Z,25.09
2018-05-15T10:39:02.471Z,25.14
2018-05-15T10:40:02.498Z,25.24
2018-05-15T10:41:02.531Z,25.29
2018-05-15T10:42:02.556Z,25.30
2018-05-15T10:43:02.586Z,25.45
2018-05-15T10:44:02.743Z,25.23
2018-05-15T10:45:02.655Z,25.27
2018-05-15T10:46:02.673Z,25.27
2018-05-15T10:47:02.706Z,25.39
2018-05-15T10:48:02.736Z,25.49
2018-05-15T10:49:02.769Z,25.56
2018-05-15T10:50:02.800Z,25.56
2018-05-15T10:51:02.826Z,25.67
2018-05-15T10:52:02.860Z,25.78
2018-05-15T10:53:02.890Z,25.86
2018-05-15T10:54:02.929Z,25.85
2018-05-15T10:55:02.951Z,26.04
2018-05-15T10:56:02.982Z,26.23
2018-05-15T10:57:03.011Z,26.38
2018-05-15T10:58:03.043Z,26.65
2018-05-15T10:59:03.070Z,26.69
2018-05-15T11:00:03.104Z,26.79
2018-05-15T11:01:03.136Z,26.93
2018-05-15T11:02:03.167Z,27.24
2018-05-15T11:03:03.194Z,27.62
2018-05-15T11:04:03.235Z,27.84
2018-05-15T11:05:03.263Z,28.27
2018-05-15T11:06:03.296Z,28.91
2018-05-15T11:07:03.319Z,29.76
2018-05-15T11:08:03.357Z,30.18
2018-05-15T11:09:03.386Z,31.03
2018-05-15T11:10:03.421Z,31.85
2018-05-15T11:11:03.450Z,32.24
2018-05-15T11:12:03.494Z,32.99
2018-05-15T11:13:03.520Z,33.53
2018-05-15T11:14:03.549Z,33.79
2018-05-15T11:15:03.588Z,34.34
2018-05-15T11:16:03.620Z,34.43
2018-05-15T11:17:03.654Z,33.96
2018-05-15T11:18:03.687Z,34.36
2018-05-15T11:19:03.720Z,34.28
2018-05-15T11:20:03.759Z,34.21
2018-05-15T11:21:03.788Z,34.09
2018-05-15T11:22:03.825Z,32.54
2018-05-15T11:23:03.867Z,31.54
2018-05-15T11:24:03.898Z,31.78
2018-05-15T11:25:03.931Z,32.36
2018-05-15T11:26:03.960Z,32.78
2018-05-15T11:27:03.993Z,33.50
2018-05-15T11:28:04.033Z,33.02
2018-05-15T11:29:04.069Z,33.41
2018-05-15T11:30:04.105Z,33.50
2018-05-15T11:31:04.140Z,34.49
2018-05-15T11:32:04.174Z,34.75
2018-05-15T11:33:04.209Z,35.09
2018-05-15T11:34:04.247Z,35.28
2018-05-15T11:35:04.284Z,35.28
2018-05-15T11:36:04.387Z,33.52
2018-05-15T11:37:04.357Z,32.05
2018-05-15T11:38:04.386Z,30.57
2018-05-15T11:39:04.421Z,31.71
2018-05-15T11:40:04.459Z,32.99
2018-05-15T11:41:04.498Z,33.82
2018-05-15T11:42:04.530Z,34.36
2018-05-15T11:43:04.565Z,35.09
2018-05-15T11:44:04.605Z,35.64
2018-05-15T11:45:04.640Z,34.86
2018-05-15T11:46:04.668Z,35.17
2018-05-15T11:47:04.712Z,35.66
2018-05-15T11:48:05.158Z,35.84
2018-05-15T11:49:05.713Z,36.49
2018-05-15T11:50:05.802Z,36.57
2018-05-15T11:51:06.116Z,36.83
2018-05-15T11:52:05.730Z,37.24
2018-05-15T11:53:05.954Z,37.49
2018-05-15T11:54:04.964Z,37.88
2018-05-15T11:55:05.006Z,38.37
2018-05-15T11:56:05.043Z,38.24
2018-05-15T11:57:05.078Z,38.36
2018-05-15T11:58:05.215Z,38.52
2018-05-15T11:59:05.162Z,38.63
2018-05-15T12:00:05.293Z,37.72
2018-05-15T12:01:05.227Z,36.28
2018-05-15T12:02:05.263Z,34.87
2018-05-15T12:03:05.384Z,35.02
2018-05-15T12:04:05.399Z,33.12
2018-05-15T12:05:05.381Z,32.80
2018-05-15T12:06:05.450Z,34.33
2018-05-15T12:07:05.457Z,33.45
2018-05-15T12:08:05.614Z,32.40
2018-05-15T12:09:05.541Z,31.98
2018-05-15T12:10:05.563Z,31.90
2018-05-15T12:11:05.607Z,33.77
2018-05-15T12:12:05.637Z,34.90
2018-05-15T12:13:05.676Z,35.87
2018-05-15T12:14:05.723Z,35.17
2018-05-15T12:15:05.765Z,33.68
2018-05-15T12:16:05.817Z,32.56
2018-05-15T12:17:05.825Z,31.54
2018-05-15T12:18:05.864Z,30.75
2018-05-15T12:19:05.900Z,29.66
2018-05-15T12:20:05.939Z,28.91
2018-05-15T12:21:06.028Z,28.60
2018-05-15T12:22:06.004Z,30.82
2018-05-15T12:23:06.044Z,32.29
2018-05-15T12:24:06.087Z,33.47
2018-05-15T12:25:06.111Z,34.37
2018-05-15T12:26:06.146Z,35.17
2018-05-15T12:27:06.191Z,35.66
2018-05-15T12:28:06.397Z,35.98
2018-05-15T12:29:06.252Z,35.89
2018-05-15T12:30:06.297Z,36.75
2018-05-15T12:31:06.328Z,37.31
2018-05-15T12:32:06.365Z,37.45
2018-05-15T12:33:06.399Z,37.02
2018-05-15T12:34:06.436Z,37.05
2018-05-15T12:35:06.479Z,37.20
2018-05-15T12:36:06.512Z,36.97
2018-05-15T12:37:06.558Z,36.96
2018-05-15T12:38:06.586Z,37.84
2018-05-15T12:39:06.630Z,38.22
2018-05-15T12:40:06.663Z,38.04
2018-05-15T12:41:06.701Z,38.31
2018-05-15T12:42:06.972Z,37.13
2018-05-15T12:43:06.778Z,37.49
2018-05-15T12:44:06.822Z,37.70
2018-05-15T12:45:06.852Z,38.07
2018-05-15T12:46:06.899Z,38.24
2018-05-15T12:47:06.932Z,38.49
2018-05-15T12:48:07.020Z,38.21
2018-05-15T12:49:07.012Z,38.43
2018-05-15T12:50:07.045Z,38.77
2018-05-15T12:51:07.094Z,38.49
2018-05-15T12:52:07.128Z,38.33
2018-05-15T12:53:07.169Z,38.24